sensor_id;sensor_type;location;lat;lon;timestamp;P1;durP1;ratioP1;P2;durP2;ratioP2
61911;SDS011;49973;52.084;5.412;2023-02-28T00:01:36;3.17;;;2.17;;
61911;SDS011;49973;52.084;5.412;2023-02-28T00:04:05;4.17;;;2.70;;
61911;SDS011;49973;52.084;5.412;2023-02-28T00:06:37;7.53;;;2.90;;
61911;SDS011;49973;52.084;5.412;2023-02-28T00:09:06;15.57;;;3.13;;
61911;SDS011;49973;52.084;5.412;2023-02-28T00:11:35;4.23;;;2.47;;
61911;SDS011;49973;52.084;5.412;2023-02-28T00:14:04;2.17;;;1.90;;
61911;SDS011;49973;52.084;5.412;2023-02-28T00:16:33;4.47;;;3.07;;
61911;SDS011;49973;52.084;5.412;2023-02-28T00:19:02;9.57;;;2.73;;
61911;SDS011;49973;52.084;5.412;2023-02-28T00:21:30;10.37;;;2.23;;
61911;SDS011;49973;52.084;5.412;2023-02-28T00:24:01;7.40;;;2.60;;
61911;SDS011;49973;52.084;5.412;2023-02-28T00:26:29;5.93;;;2.27;;
61911;SDS011;49973;52.084;5.412;2023-02-28T00:28:58;3.63;;;1.80;;
61911;SDS011;49973;52.084;5.412;2023-02-28T00:31:27;2.87;;;2.17;;
61911;SDS011;49973;52.084;5.412;2023-02-28T00:33:56;2.47;;;2.27;;
61911;SDS011;49973;52.084;5.412;2023-02-28T00:36:25;2.07;;;1.80;;
61911;SDS011;49973;52.084;5.412;2023-02-28T00:38:54;3.80;;;1.93;;
61911;SDS011;49973;52.084;5.412;2023-02-28T00:41:24;5.93;;;2.23;;
61911;SDS011;49973;52.084;5.412;2023-02-28T00:43:54;14.33;;;2.73;;
61911;SDS011;49973;52.084;5.412;2023-02-28T00:46:22;3.23;;;1.97;;
61911;SDS011;49973;52.084;5.412;2023-02-28T00:48:51;6.40;;;2.60;;
61911;SDS011;49973;52.084;5.412;2023-02-28T00:51:20;3.00;;;2.27;;
61911;SDS011;49973;52.084;5.412;2023-02-28T00:53:49;4.20;;;2.67;;
61911;SDS011;49973;52.084;5.412;2023-02-28T00:56:24;3.57;;;2.70;;
61911;SDS011;49973;52.084;5.412;2023-02-28T00:58:53;3.87;;;2.30;;
61911;SDS011;49973;52.084;5.412;2023-02-28T01:01:22;3.93;;;2.27;;
61911;SDS011;49973;52.084;5.412;2023-02-28T01:03:51;3.37;;;2.37;;
61911;SDS011;49973;52.084;5.412;2023-02-28T01:06:20;8.67;;;2.93;;
61911;SDS011;49973;52.084;5.412;2023-02-28T01:08:48;4.10;;;2.63;;
61911;SDS011;49973;52.084;5.412;2023-02-28T01:11:17;3.57;;;2.50;;
61911;SDS011;49973;52.084;5.412;2023-02-28T01:13:48;5.40;;;2.77;;
61911;SDS011;49973;52.084;5.412;2023-02-28T01:16:16;5.93;;;2.40;;
61911;SDS011;49973;52.084;5.412;2023-02-28T01:18:45;3.37;;;2.10;;
61911;SDS011;49973;52.084;5.412;2023-02-28T01:21:14;3.33;;;2.50;;
61911;SDS011;49973;52.084;5.412;2023-02-28T01:23:45;4.97;;;2.30;;
61911;SDS011;49973;52.084;5.412;2023-02-28T01:26:15;5.10;;;2.20;;
61911;SDS011;49973;52.084;5.412;2023-02-28T01:28:45;3.63;;;2.53;;
61911;SDS011;49973;52.084;5.412;2023-02-28T01:31:16;5.70;;;2.33;;
61911;SDS011;49973;52.084;5.412;2023-02-28T01:33:46;4.57;;;2.30;;
61911;SDS011;49973;52.084;5.412;2023-02-28T01:36:15;5.33;;;2.70;;
61911;SDS011;49973;52.084;5.412;2023-02-28T01:38:45;4.10;;;2.80;;
61911;SDS011;49973;52.084;5.412;2023-02-28T01:41:15;4.93;;;2.30;;
61911;SDS011;49973;52.084;5.412;2023-02-28T01:43:54;4.47;;;2.80;;
61911;SDS011;49973;52.084;5.412;2023-02-28T01:46:26;3.97;;;2.50;;
61911;SDS011;49973;52.084;5.412;2023-02-28T01:48:56;10.80;;;2.53;;
61911;SDS011;49973;52.084;5.412;2023-02-28T01:51:31;3.80;;;2.33;;
61911;SDS011;49973;52.084;5.412;2023-02-28T01:54:05;7.20;;;2.20;;
61911;SDS011;49973;52.084;5.412;2023-02-28T01:56:41;2.40;;;2.17;;
61911;SDS011;49973;52.084;5.412;2023-02-28T01:59:13;4.77;;;2.30;;
61911;SDS011;49973;52.084;5.412;2023-02-28T02:01:49;4.33;;;2.37;;
61911;SDS011;49973;52.084;5.412;2023-02-28T02:04:18;4.17;;;1.90;;
61911;SDS011;49973;52.084;5.412;2023-02-28T02:06:49;4.40;;;2.87;;
61911;SDS011;49973;52.084;5.412;2023-02-28T02:09:18;3.67;;;2.53;;
61911;SDS011;49973;52.084;5.412;2023-02-28T02:11:47;7.90;;;2.37;;
61911;SDS011;49973;52.084;5.412;2023-02-28T02:14:22;4.20;;;1.93;;
61911;SDS011;49973;52.084;5.412;2023-02-28T02:17:07;5.77;;;2.40;;
61911;SDS011;49973;52.084;5.412;2023-02-28T02:19:56;5.87;;;2.00;;
61911;SDS011;49973;52.084;5.412;2023-02-28T02:22:57;5.37;;;2.20;;
61911;SDS011;49973;52.084;5.412;2023-02-28T02:25:42;4.50;;;2.23;;
61911;SDS011;49973;52.084;5.412;2023-02-28T02:31:19;6.83;;;1.90;;
61911;SDS011;49973;52.084;5.412;2023-02-28T02:34:25;3.90;;;2.23;;
61911;SDS011;49973;52.084;5.412;2023-02-28T02:37:02;4.50;;;2.33;;
61911;SDS011;49973;52.084;5.412;2023-02-28T02:39:40;15.23;;;3.50;;
61911;SDS011;49973;52.084;5.412;2023-02-28T02:42:16;7.83;;;3.03;;
61911;SDS011;49973;52.084;5.412;2023-02-28T02:44:50;7.77;;;2.63;;
61911;SDS011;49973;52.084;5.412;2023-02-28T02:47:24;4.83;;;2.20;;
61911;SDS011;49973;52.084;5.412;2023-02-28T02:49:59;2.77;;;2.20;;
61911;SDS011;49973;52.084;5.412;2023-02-28T02:52:34;7.50;;;2.87;;
61911;SDS011;49973;52.084;5.412;2023-02-28T02:55:07;5.80;;;2.03;;
61911;SDS011;49973;52.084;5.412;2023-02-28T02:57:41;7.77;;;2.40;;
61911;SDS011;49973;52.084;5.412;2023-02-28T03:00:14;5.30;;;2.50;;
61911;SDS011;49973;52.084;5.412;2023-02-28T03:02:46;5.03;;;2.20;;
61911;SDS011;49973;52.084;5.412;2023-02-28T03:05:19;2.43;;;1.90;;
61911;SDS011;49973;52.084;5.412;2023-02-28T03:07:51;6.07;;;2.43;;
61911;SDS011;49973;52.084;5.412;2023-02-28T03:10:30;2.67;;;2.00;;
61911;SDS011;49973;52.084;5.412;2023-02-28T03:16:25;3.87;;;2.33;;
61911;SDS011;49973;52.084;5.412;2023-02-28T03:22:19;5.73;;;2.63;;
61911;SDS011;49973;52.084;5.412;2023-02-28T03:25:04;6.50;;;2.97;;
61911;SDS011;49973;52.084;5.412;2023-02-28T03:27:38;4.40;;;2.27;;
61911;SDS011;49973;52.084;5.412;2023-02-28T03:30:10;4.03;;;2.53;;
61911;SDS011;49973;52.084;5.412;2023-02-28T03:32:43;4.47;;;2.40;;
61911;SDS011;49973;52.084;5.412;2023-02-28T03:35:20;4.00;;;2.50;;
61911;SDS011;49973;52.084;5.412;2023-02-28T03:37:53;6.27;;;2.33;;
61911;SDS011;49973;52.084;5.412;2023-02-28T03:40:30;3.27;;;2.27;;
61911;SDS011;49973;52.084;5.412;2023-02-28T03:43:02;4.80;;;2.23;;
61911;SDS011;49973;52.084;5.412;2023-02-28T03:45:36;9.13;;;2.80;;
61911;SDS011;49973;52.084;5.412;2023-02-28T03:48:11;5.30;;;2.40;;
61911;SDS011;49973;52.084;5.412;2023-02-28T03:50:43;6.27;;;2.67;;
61911;SDS011;49973;52.084;5.412;2023-02-28T03:53:17;3.57;;;2.60;;
61911;SDS011;49973;52.084;5.412;2023-02-28T03:55:49;6.60;;;2.30;;
61911;SDS011;49973;52.084;5.412;2023-02-28T03:58:25;4.37;;;2.57;;
61911;SDS011;49973;52.084;5.412;2023-02-28T04:00:59;11.77;;;2.40;;
61911;SDS011;49973;52.084;5.412;2023-02-28T04:03:35;5.77;;;3.30;;
61911;SDS011;49973;52.084;5.412;2023-02-28T04:06:05;5.17;;;2.60;;
61911;SDS011;49973;52.084;5.412;2023-02-28T04:08:37;2.97;;;2.33;;
61911;SDS011;49973;52.084;5.412;2023-02-28T04:11:08;4.03;;;2.43;;
61911;SDS011;49973;52.084;5.412;2023-02-28T04:13:46;6.03;;;2.53;;
61911;SDS011;49973;52.084;5.412;2023-02-28T04:16:15;3.90;;;2.33;;
61911;SDS011;49973;52.084;5.412;2023-02-28T04:19:00;8.27;;;3.07;;
61911;SDS011;49973;52.084;5.412;2023-02-28T04:21:30;3.23;;;2.20;;
61911;SDS011;49973;52.084;5.412;2023-02-28T04:24:02;3.00;;;2.30;;
61911;SDS011;49973;52.084;5.412;2023-02-28T04:26:31;3.07;;;2.30;;
61911;SDS011;49973;52.084;5.412;2023-02-28T04:29:00;3.00;;;2.17;;
61911;SDS011;49973;52.084;5.412;2023-02-28T04:31:30;2.77;;;2.40;;
61911;SDS011;49973;52.084;5.412;2023-02-28T04:34:00;7.80;;;2.53;;
61911;SDS011;49973;52.084;5.412;2023-02-28T04:36:29;3.50;;;1.97;;
61911;SDS011;49973;52.084;5.412;2023-02-28T04:38:58;5.10;;;2.40;;
61911;SDS011;49973;52.084;5.412;2023-02-28T04:41:28;3.40;;;2.23;;
61911;SDS011;49973;52.084;5.412;2023-02-28T04:43:58;4.27;;;2.27;;
61911;SDS011;49973;52.084;5.412;2023-02-28T04:46:27;5.07;;;2.40;;
61911;SDS011;49973;52.084;5.412;2023-02-28T04:48:57;3.30;;;2.20;;
61911;SDS011;49973;52.084;5.412;2023-02-28T04:51:26;4.73;;;2.73;;
61911;SDS011;49973;52.084;5.412;2023-02-28T04:53:55;3.27;;;1.90;;
61911;SDS011;49973;52.084;5.412;2023-02-28T04:56:23;5.00;;;2.20;;
61911;SDS011;49973;52.084;5.412;2023-02-28T04:58:53;2.47;;;2.07;;
61911;SDS011;49973;52.084;5.412;2023-02-28T05:01:23;4.40;;;2.03;;
61911;SDS011;49973;52.084;5.412;2023-02-28T05:03:53;2.30;;;2.00;;
61911;SDS011;49973;52.084;5.412;2023-02-28T05:06:23;2.50;;;2.20;;
61911;SDS011;49973;52.084;5.412;2023-02-28T05:08:53;3.20;;;1.97;;
61911;SDS011;49973;52.084;5.412;2023-02-28T05:11:23;3.70;;;2.27;;
61911;SDS011;49973;52.084;5.412;2023-02-28T05:13:54;2.27;;;1.93;;
61911;SDS011;49973;52.084;5.412;2023-02-28T05:16:23;4.03;;;2.20;;
61911;SDS011;49973;52.084;5.412;2023-02-28T05:18:52;3.40;;;2.20;;
61911;SDS011;49973;52.084;5.412;2023-02-28T05:21:23;3.23;;;2.23;;
61911;SDS011;49973;52.084;5.412;2023-02-28T05:23:54;3.97;;;2.53;;
61911;SDS011;49973;52.084;5.412;2023-02-28T05:26:25;4.90;;;2.20;;
61911;SDS011;49973;52.084;5.412;2023-02-28T05:28:56;3.33;;;2.40;;
61911;SDS011;49973;52.084;5.412;2023-02-28T05:31:24;7.67;;;2.37;;
61911;SDS011;49973;52.084;5.412;2023-02-28T05:33:54;2.23;;;2.03;;
61911;SDS011;49973;52.084;5.412;2023-02-28T05:36:22;2.20;;;2.00;;
61911;SDS011;49973;52.084;5.412;2023-02-28T05:38:51;2.53;;;1.77;;
61911;SDS011;49973;52.084;5.412;2023-02-28T05:41:20;3.27;;;2.30;;
61911;SDS011;49973;52.084;5.412;2023-02-28T05:43:49;3.90;;;1.80;;
61911;SDS011;49973;52.084;5.412;2023-02-28T05:46:19;5.80;;;2.60;;
61911;SDS011;49973;52.084;5.412;2023-02-28T05:48:48;4.17;;;2.60;;
61911;SDS011;49973;52.084;5.412;2023-02-28T05:51:17;3.20;;;2.37;;
61911;SDS011;49973;52.084;5.412;2023-02-28T05:53:46;2.60;;;2.17;;
61911;SDS011;49973;52.084;5.412;2023-02-28T05:56:15;3.67;;;2.07;;
61911;SDS011;49973;52.084;5.412;2023-02-28T05:58:44;4.67;;;2.60;;
61911;SDS011;49973;52.084;5.412;2023-02-28T06:01:22;3.07;;;1.97;;
61911;SDS011;49973;52.084;5.412;2023-02-28T06:03:54;4.57;;;3.10;;
61911;SDS011;49973;52.084;5.412;2023-02-28T06:06:23;6.67;;;2.27;;
61911;SDS011;49973;52.084;5.412;2023-02-28T06:08:52;5.10;;;2.47;;
61911;SDS011;49973;52.084;5.412;2023-02-28T06:11:20;3.97;;;2.50;;
61911;SDS011;49973;52.084;5.412;2023-02-28T06:13:54;5.03;;;2.60;;
61911;SDS011;49973;52.084;5.412;2023-02-28T06:16:25;4.83;;;2.73;;
61911;SDS011;49973;52.084;5.412;2023-02-28T06:18:54;2.60;;;2.40;;
61911;SDS011;49973;52.084;5.412;2023-02-28T06:21:24;3.20;;;2.07;;
61911;SDS011;49973;52.084;5.412;2023-02-28T06:23:55;4.60;;;2.30;;
61911;SDS011;49973;52.084;5.412;2023-02-28T06:26:24;5.77;;;2.60;;
61911;SDS011;49973;52.084;5.412;2023-02-28T06:28:53;3.50;;;2.93;;
61911;SDS011;49973;52.084;5.412;2023-02-28T06:31:23;4.00;;;2.97;;
61911;SDS011;49973;52.084;5.412;2023-02-28T06:33:56;3.13;;;2.60;;
61911;SDS011;49973;52.084;5.412;2023-02-28T06:36:25;3.23;;;2.37;;
61911;SDS011;49973;52.084;5.412;2023-02-28T06:38:53;5.03;;;2.80;;
61911;SDS011;49973;52.084;5.412;2023-02-28T06:41:23;3.27;;;2.40;;
61911;SDS011;49973;52.084;5.412;2023-02-28T06:43:53;4.87;;;2.70;;
61911;SDS011;49973;52.084;5.412;2023-02-28T06:46:22;3.10;;;2.57;;
61911;SDS011;49973;52.084;5.412;2023-02-28T06:48:52;3.17;;;2.40;;
61911;SDS011;49973;52.084;5.412;2023-02-28T06:51:21;2.93;;;2.27;;
61911;SDS011;49973;52.084;5.412;2023-02-28T06:53:51;6.90;;;2.93;;
61911;SDS011;49973;52.084;5.412;2023-02-28T06:56:20;4.73;;;2.60;;
61911;SDS011;49973;52.084;5.412;2023-02-28T06:58:49;3.23;;;2.87;;
61911;SDS011;49973;52.084;5.412;2023-02-28T07:01:19;5.27;;;2.90;;
61911;SDS011;49973;52.084;5.412;2023-02-28T07:03:52;2.80;;;2.57;;
61911;SDS011;49973;52.084;5.412;2023-02-28T07:06:21;4.70;;;2.77;;
61911;SDS011;49973;52.084;5.412;2023-02-28T07:08:50;3.47;;;2.57;;
61911;SDS011;49973;52.084;5.412;2023-02-28T07:11:20;3.80;;;2.87;;
61911;SDS011;49973;52.084;5.412;2023-02-28T07:13:52;4.60;;;2.93;;
61911;SDS011;49973;52.084;5.412;2023-02-28T07:16:22;3.27;;;2.43;;
61911;SDS011;49973;52.084;5.412;2023-02-28T07:18:53;6.63;;;3.30;;
61911;SDS011;49973;52.084;5.412;2023-02-28T07:21:22;5.27;;;2.37;;
61911;SDS011;49973;52.084;5.412;2023-02-28T07:23:51;3.70;;;2.97;;
61911;SDS011;49973;52.084;5.412;2023-02-28T07:26:20;3.80;;;2.80;;
61911;SDS011;49973;52.084;5.412;2023-02-28T07:28:49;7.53;;;3.10;;
61911;SDS011;49973;52.084;5.412;2023-02-28T07:31:17;6.57;;;3.00;;
61911;SDS011;49973;52.084;5.412;2023-02-28T07:33:46;5.40;;;3.67;;
61911;SDS011;49973;52.084;5.412;2023-02-28T07:36:16;5.27;;;2.73;;
61911;SDS011;49973;52.084;5.412;2023-02-28T07:38:47;11.73;;;3.53;;
61911;SDS011;49973;52.084;5.412;2023-02-28T07:41:21;4.90;;;3.23;;
61911;SDS011;49973;52.084;5.412;2023-02-28T07:43:54;13.50;;;3.43;;
61911;SDS011;49973;52.084;5.412;2023-02-28T07:46:24;8.37;;;4.07;;
61911;SDS011;49973;52.084;5.412;2023-02-28T07:48:56;4.40;;;3.33;;
61911;SDS011;49973;52.084;5.412;2023-02-28T07:51:28;3.87;;;3.30;;
61911;SDS011;49973;52.084;5.412;2023-02-28T07:53:57;7.50;;;4.27;;
61911;SDS011;49973;52.084;5.412;2023-02-28T07:56:26;6.03;;;3.17;;
61911;SDS011;49973;52.084;5.412;2023-02-28T07:58:55;4.27;;;2.87;;
61911;SDS011;49973;52.084;5.412;2023-02-28T08:01:25;7.63;;;3.47;;
61911;SDS011;49973;52.084;5.412;2023-02-28T08:03:54;7.83;;;2.87;;
61911;SDS011;49973;52.084;5.412;2023-02-28T08:06:24;6.27;;;3.00;;
61911;SDS011;49973;52.084;5.412;2023-02-28T08:08:54;6.33;;;2.73;;
61911;SDS011;49973;52.084;5.412;2023-02-28T08:11:23;6.50;;;3.60;;
61911;SDS011;49973;52.084;5.412;2023-02-28T08:13:52;6.97;;;3.20;;
61911;SDS011;49973;52.084;5.412;2023-02-28T08:16:22;5.73;;;3.37;;
61911;SDS011;49973;52.084;5.412;2023-02-28T08:18:51;7.40;;;2.93;;
61911;SDS011;49973;52.084;5.412;2023-02-28T08:21:21;5.00;;;3.43;;
61911;SDS011;49973;52.084;5.412;2023-02-28T08:23:50;5.47;;;3.60;;
61911;SDS011;49973;52.084;5.412;2023-02-28T08:26:20;5.87;;;3.37;;
61911;SDS011;49973;52.084;5.412;2023-02-28T08:28:49;5.47;;;2.97;;
61911;SDS011;49973;52.084;5.412;2023-02-28T08:31:18;3.90;;;3.50;;
61911;SDS011;49973;52.084;5.412;2023-02-28T08:33:47;15.80;;;3.63;;
61911;SDS011;49973;52.084;5.412;2023-02-28T08:36:18;5.63;;;3.53;;
61911;SDS011;49973;52.084;5.412;2023-02-28T08:38:47;3.57;;;2.43;;
61911;SDS011;49973;52.084;5.412;2023-02-28T08:41:16;6.17;;;3.47;;
61911;SDS011;49973;52.084;5.412;2023-02-28T08:43:46;6.63;;;2.97;;
61911;SDS011;49973;52.084;5.412;2023-02-28T08:46:15;4.47;;;2.80;;
61911;SDS011;49973;52.084;5.412;2023-02-28T08:48:43;3.57;;;2.97;;
61911;SDS011;49973;52.084;5.412;2023-02-28T08:51:13;4.20;;;3.13;;
61911;SDS011;49973;52.084;5.412;2023-02-28T08:53:45;8.07;;;2.30;;
61911;SDS011;49973;52.084;5.412;2023-02-28T08:56:16;4.20;;;2.70;;
61911;SDS011;49973;52.084;5.412;2023-02-28T08:58:47;5.67;;;2.83;;
61911;SDS011;49973;52.084;5.412;2023-02-28T09:01:17;2.77;;;2.30;;
61911;SDS011;49973;52.084;5.412;2023-02-28T09:03:47;4.63;;;2.50;;
61911;SDS011;49973;52.084;5.412;2023-02-28T09:06:17;2.97;;;2.33;;
61911;SDS011;49973;52.084;5.412;2023-02-28T09:08:47;2.83;;;1.87;;
61911;SDS011;49973;52.084;5.412;2023-02-28T09:11:17;4.03;;;1.87;;
61911;SDS011;49973;52.084;5.412;2023-02-28T09:13:48;4.90;;;2.37;;
61911;SDS011;49973;52.084;5.412;2023-02-28T09:16:16;3.70;;;2.30;;
61911;SDS011;49973;52.084;5.412;2023-02-28T09:18:46;2.77;;;2.00;;
61911;SDS011;49973;52.084;5.412;2023-02-28T09:21:15;1.57;;;1.43;;
61911;SDS011;49973;52.084;5.412;2023-02-28T09:23:46;3.73;;;1.77;;
61911;SDS011;49973;52.084;5.412;2023-02-28T09:26:16;1.57;;;1.30;;
61911;SDS011;49973;52.084;5.412;2023-02-28T09:28:48;1.20;;;1.10;;
61911;SDS011;49973;52.084;5.412;2023-02-28T09:31:17;1.70;;;1.33;;
61911;SDS011;49973;52.084;5.412;2023-02-28T09:33:48;1.20;;;1.10;;
61911;SDS011;49973;52.084;5.412;2023-02-28T09:36:18;1.13;;;0.87;;
61911;SDS011;49973;52.084;5.412;2023-02-28T09:38:49;1.00;;;0.90;;
61911;SDS011;49973;52.084;5.412;2023-02-28T09:41:20;2.20;;;1.10;;
61911;SDS011;49973;52.084;5.412;2023-02-28T09:43:53;1.73;;;1.03;;
61911;SDS011;49973;52.084;5.412;2023-02-28T09:46:27;1.00;;;0.93;;
61911;SDS011;49973;52.084;5.412;2023-02-28T09:48:59;1.30;;;1.10;;
61911;SDS011;49973;52.084;5.412;2023-02-28T09:51:33;1.43;;;1.13;;
61911;SDS011;49973;52.084;5.412;2023-02-28T09:54:09;2.13;;;1.73;;
61911;SDS011;49973;52.084;5.412;2023-02-28T09:56:47;1.43;;;1.20;;
61911;SDS011;49973;52.084;5.412;2023-02-28T09:59:25;1.10;;;1.00;;
61911;SDS011;49973;52.084;5.412;2023-02-28T10:02:04;1.30;;;1.17;;
61911;SDS011;49973;52.084;5.412;2023-02-28T10:04:46;2.53;;;1.30;;
61911;SDS011;49973;52.084;5.412;2023-02-28T10:07:35;1.20;;;1.10;;
61911;SDS011;49973;52.084;5.412;2023-02-28T10:12:48;1.93;;;1.40;;
61911;SDS011;49973;52.084;5.412;2023-02-28T10:15:23;2.03;;;1.30;;
61911;SDS011;49973;52.084;5.412;2023-02-28T10:17:54;1.33;;;1.10;;
61911;SDS011;49973;52.084;5.412;2023-02-28T10:20:35;1.30;;;1.17;;
61911;SDS011;49973;52.084;5.412;2023-02-28T10:23:09;1.30;;;1.20;;
61911;SDS011;49973;52.084;5.412;2023-02-28T10:25:43;4.40;;;1.57;;
61911;SDS011;49973;52.084;5.412;2023-02-28T10:28:16;2.70;;;1.43;;
61911;SDS011;49973;52.084;5.412;2023-02-28T10:30:49;2.73;;;1.13;;
61911;SDS011;49973;52.084;5.412;2023-02-28T10:33:22;1.10;;;1.00;;
61911;SDS011;49973;52.084;5.412;2023-02-28T10:35:52;1.73;;;1.30;;
61911;SDS011;49973;52.084;5.412;2023-02-28T10:38:22;1.20;;;1.10;;
61911;SDS011;49973;52.084;5.412;2023-02-28T10:40:52;1.40;;;1.00;;
61911;SDS011;49973;52.084;5.412;2023-02-28T10:43:31;2.67;;;1.10;;
61911;SDS011;49973;52.084;5.412;2023-02-28T10:46:03;2.07;;;1.37;;
61911;SDS011;49973;52.084;5.412;2023-02-28T10:48:41;1.73;;;1.53;;
61911;SDS011;49973;52.084;5.412;2023-02-28T10:51:12;2.10;;;1.60;;
61911;SDS011;49973;52.084;5.412;2023-02-28T10:53:45;1.90;;;1.30;;
61911;SDS011;49973;52.084;5.412;2023-02-28T10:56:28;1.90;;;1.40;;
61911;SDS011;49973;52.084;5.412;2023-02-28T10:58:59;1.60;;;1.17;;
61911;SDS011;49973;52.084;5.412;2023-02-28T11:01:37;2.07;;;1.40;;
61911;SDS011;49973;52.084;5.412;2023-02-28T11:04:18;2.20;;;1.20;;
61911;SDS011;49973;52.084;5.412;2023-02-28T11:06:55;1.57;;;1.47;;
61911;SDS011;49973;52.084;5.412;2023-02-28T11:09:27;1.13;;;1.03;;
61911;SDS011;49973;52.084;5.412;2023-02-28T11:11:59;1.27;;;1.00;;
61911;SDS011;49973;52.084;5.412;2023-02-28T11:14:29;3.10;;;1.23;;
61911;SDS011;49973;52.084;5.412;2023-02-28T11:17:03;1.57;;;1.30;;
61911;SDS011;49973;52.084;5.412;2023-02-28T11:19:44;1.97;;;1.20;;
61911;SDS011;49973;52.084;5.412;2023-02-28T11:22:17;1.03;;;1.03;;
61911;SDS011;49973;52.084;5.412;2023-02-28T11:24:49;1.50;;;1.20;;
61911;SDS011;49973;52.084;5.412;2023-02-28T11:27:39;1.20;;;1.10;;
61911;SDS011;49973;52.084;5.412;2023-02-28T11:30:24;1.30;;;1.20;;
61911;SDS011;49973;52.084;5.412;2023-02-28T11:32:59;0.90;;;0.90;;
61911;SDS011;49973;52.084;5.412;2023-02-28T11:35:29;4.80;;;1.30;;
61911;SDS011;49973;52.084;5.412;2023-02-28T11:38:01;2.03;;;1.23;;
61911;SDS011;49973;52.084;5.412;2023-02-28T11:40:36;2.00;;;1.00;;
61911;SDS011;49973;52.084;5.412;2023-02-28T11:43:16;1.13;;;1.10;;
61911;SDS011;49973;52.084;5.412;2023-02-28T11:46:08;2.13;;;1.20;;
61911;SDS011;49973;52.084;5.412;2023-02-28T11:48:50;1.63;;;1.13;;
61911;SDS011;49973;52.084;5.412;2023-02-28T11:51:27;1.80;;;1.03;;
61911;SDS011;49973;52.084;5.412;2023-02-28T11:54:15;1.07;;;1.00;;
61911;SDS011;49973;52.084;5.412;2023-02-28T11:56:55;1.23;;;1.13;;
61911;SDS011;49973;52.084;5.412;2023-02-28T11:59:35;2.17;;;1.17;;
61911;SDS011;49973;52.084;5.412;2023-02-28T12:02:20;5.63;;;1.37;;
61911;SDS011;49973;52.084;5.412;2023-02-28T12:04:57;4.60;;;1.03;;
61911;SDS011;49973;52.084;5.412;2023-02-28T12:07:42;1.23;;;1.10;;
61911;SDS011;49973;52.084;5.412;2023-02-28T12:10:21;1.77;;;1.27;;
61911;SDS011;49973;52.084;5.412;2023-02-28T12:12:58;2.50;;;1.43;;
61911;SDS011;49973;52.084;5.412;2023-02-28T12:15:43;1.13;;;1.03;;
61911;SDS011;49973;52.084;5.412;2023-02-28T12:18:30;4.37;;;1.37;;
61911;SDS011;49973;52.084;5.412;2023-02-28T12:21:14;3.13;;;1.10;;
61911;SDS011;49973;52.084;5.412;2023-02-28T12:23:55;3.77;;;1.20;;
61911;SDS011;49973;52.084;5.412;2023-02-28T12:26:32;2.30;;;1.67;;
61911;SDS011;49973;52.084;5.412;2023-02-28T12:29:13;2.13;;;1.10;;
61911;SDS011;49973;52.084;5.412;2023-02-28T12:31:47;1.40;;;1.23;;
61911;SDS011;49973;52.084;5.412;2023-02-28T12:34:20;1.90;;;1.50;;
61911;SDS011;49973;52.084;5.412;2023-02-28T12:36:55;1.60;;;1.20;;
61911;SDS011;49973;52.084;5.412;2023-02-28T12:39:28;1.10;;;1.00;;
61911;SDS011;49973;52.084;5.412;2023-02-28T12:42:17;2.23;;;1.00;;
61911;SDS011;49973;52.084;5.412;2023-02-28T12:44:52;2.97;;;1.00;;
61911;SDS011;49973;52.084;5.412;2023-02-28T12:47:24;1.20;;;1.10;;
61911;SDS011;49973;52.084;5.412;2023-02-28T12:49:53;1.53;;;1.10;;
61911;SDS011;49973;52.084;5.412;2023-02-28T12:52:29;1.60;;;1.03;;
61911;SDS011;49973;52.084;5.412;2023-02-28T12:55:04;2.47;;;1.37;;
61911;SDS011;49973;52.084;5.412;2023-02-28T12:57:41;3.33;;;1.30;;
61911;SDS011;49973;52.084;5.412;2023-02-28T13:00:16;3.27;;;1.20;;
61911;SDS011;49973;52.084;5.412;2023-02-28T13:02:52;1.40;;;1.30;;
61911;SDS011;49973;52.084;5.412;2023-02-28T13:05:46;1.33;;;1.03;;
61911;SDS011;49973;52.084;5.412;2023-02-28T13:11:28;1.10;;;1.00;;
61911;SDS011;49973;52.084;5.412;2023-02-28T13:13:59;1.00;;;1.00;;
61911;SDS011;49973;52.084;5.412;2023-02-28T13:16:47;1.97;;;1.60;;
61911;SDS011;49973;52.084;5.412;2023-02-28T13:19:27;4.03;;;1.43;;
61911;SDS011;49973;52.084;5.412;2023-02-28T13:21:57;2.33;;;1.53;;
61911;SDS011;49973;52.084;5.412;2023-02-28T13:24:43;2.13;;;1.33;;
61911;SDS011;49973;52.084;5.412;2023-02-28T13:33:23;2.07;;;1.33;;
61911;SDS011;49973;52.084;5.412;2023-02-28T13:36:01;2.20;;;1.40;;
61911;SDS011;49973;52.084;5.412;2023-02-28T13:38:38;1.70;;;1.53;;
61911;SDS011;49973;52.084;5.412;2023-02-28T13:44:13;1.60;;;1.50;;
61911;SDS011;49973;52.084;5.412;2023-02-28T13:49:51;1.57;;;1.47;;
61911;SDS011;49973;52.084;5.412;2023-02-28T13:52:22;3.67;;;1.53;;
61911;SDS011;49973;52.084;5.412;2023-02-28T13:54:54;1.63;;;1.23;;
61911;SDS011;49973;52.084;5.412;2023-02-28T13:57:35;1.63;;;1.47;;
61911;SDS011;49973;52.084;5.412;2023-02-28T14:00:18;2.13;;;1.83;;
61911;SDS011;49973;52.084;5.412;2023-02-28T14:03:03;2.07;;;1.43;;
61911;SDS011;49973;52.084;5.412;2023-02-28T14:05:42;4.37;;;1.87;;
61911;SDS011;49973;52.084;5.412;2023-02-28T14:08:13;4.97;;;1.57;;
61911;SDS011;49973;52.084;5.412;2023-02-28T14:10:45;6.37;;;1.70;;
61911;SDS011;49973;52.084;5.412;2023-02-28T14:16:12;1.60;;;1.13;;
61911;SDS011;49973;52.084;5.412;2023-02-28T14:18:47;2.50;;;1.30;;
61911;SDS011;49973;52.084;5.412;2023-02-28T14:21:22;1.60;;;1.50;;
61911;SDS011;49973;52.084;5.412;2023-02-28T14:24:06;1.83;;;1.47;;
61911;SDS011;49973;52.084;5.412;2023-02-28T14:27:03;2.23;;;1.37;;
61911;SDS011;49973;52.084;5.412;2023-02-28T14:29:59;3.13;;;1.50;;
61911;SDS011;49973;52.084;5.412;2023-02-28T14:32:50;2.23;;;1.37;;
61911;SDS011;49973;52.084;5.412;2023-02-28T14:35:31;1.97;;;1.40;;
61911;SDS011;49973;52.084;5.412;2023-02-28T14:38:13;2.37;;;1.90;;
61911;SDS011;49973;52.084;5.412;2023-02-28T14:40:45;2.10;;;1.77;;
61911;SDS011;49973;52.084;5.412;2023-02-28T14:43:19;1.97;;;1.23;;
61911;SDS011;49973;52.084;5.412;2023-02-28T14:45:51;1.40;;;1.30;;
61911;SDS011;49973;52.084;5.412;2023-02-28T14:48:22;4.63;;;1.80;;
61911;SDS011;49973;52.084;5.412;2023-02-28T14:50:53;2.07;;;1.27;;
61911;SDS011;49973;52.084;5.412;2023-02-28T14:53:25;1.87;;;1.57;;
61911;SDS011;49973;52.084;5.412;2023-02-28T14:55:56;2.90;;;1.73;;
61911;SDS011;49973;52.084;5.412;2023-02-28T14:58:26;3.23;;;1.57;;
61911;SDS011;49973;52.084;5.412;2023-02-28T15:00:58;3.13;;;1.40;;
61911;SDS011;49973;52.084;5.412;2023-02-28T15:03:30;3.27;;;1.53;;
61911;SDS011;49973;52.084;5.412;2023-02-28T15:06:01;1.43;;;1.33;;
61911;SDS011;49973;52.084;5.412;2023-02-28T15:08:32;4.47;;;1.87;;
61911;SDS011;49973;52.084;5.412;2023-02-28T15:11:04;1.43;;;1.33;;
61911;SDS011;49973;52.084;5.412;2023-02-28T15:13:36;1.67;;;1.57;;
61911;SDS011;49973;52.084;5.412;2023-02-28T15:16:09;1.33;;;1.17;;
61911;SDS011;49973;52.084;5.412;2023-02-28T15:18:43;1.40;;;1.20;;
61911;SDS011;49973;52.084;5.412;2023-02-28T15:21:16;3.57;;;1.33;;
61911;SDS011;49973;52.084;5.412;2023-02-28T15:23:48;2.33;;;1.60;;
61911;SDS011;49973;52.084;5.412;2023-02-28T15:26:20;1.70;;;1.37;;
61911;SDS011;49973;52.084;5.412;2023-02-28T15:28:51;5.93;;;1.73;;
61911;SDS011;49973;52.084;5.412;2023-02-28T15:31:27;1.07;;;0.97;;
61911;SDS011;49973;52.084;5.412;2023-02-28T15:34:20;2.77;;;1.57;;
61911;SDS011;49973;52.084;5.412;2023-02-28T15:36:54;2.70;;;1.37;;
61911;SDS011;49973;52.084;5.412;2023-02-28T15:39:23;1.40;;;1.23;;
61911;SDS011;49973;52.084;5.412;2023-02-28T15:44:40;1.97;;;1.20;;
61911;SDS011;49973;52.084;5.412;2023-02-28T15:47:14;1.77;;;1.20;;
61911;SDS011;49973;52.084;5.412;2023-02-28T15:49:47;1.80;;;1.37;;
61911;SDS011;49973;52.084;5.412;2023-02-28T15:52:27;1.63;;;1.53;;
61911;SDS011;49973;52.084;5.412;2023-02-28T15:55:02;2.23;;;1.57;;
61911;SDS011;49973;52.084;5.412;2023-02-28T15:57:36;3.27;;;2.33;;